Terminal Aerodrome Forecast
Issued by NWS

Home | Current Version | Previous Version | Text Only | Print | Product List | Glossary On
Versions: 1 2 3 4 5 6 7 8 9 10 11 12 13
000
FTUS46 KMFR 231700
TAFRBG
TAF
KRBG 231740Z 2318/2418 VRB03KT P6SM BKN060 OVC100
     FM232100 19005KT P6SM FEW025 SCT060 OVC120
     FM240000 21008KT P6SM -SHRA FEW050 SCT070 OVC120
     FM240900 30007KT 5SM RA BR BKN025 BKN035 OVC050
     FM241500 VRB04KT 5SM RA BR SCT005 OVC025=

USA.gov is the U.S. government's official web portal to all federal, state and local government web resources and services.